Raugust, Washington
Current Conditions -  °F | °C
As of 10:52 PM on Thursday 27 Nov 2014 (Local Time) from KMWH Reporting Station
Clear Clear  
Wind Chill: 45°   Ceiling: Unl
Heat Index: 49°   Visibility: 10mi
Dew Point: 42°   Wind: 9mph
Humidity: 77%   Direction: 170°S
Pressure: 29.69"   Gusts: NA
Location:  47.1758°N, 119.289°W
Report Text: KMWH 280652Z AUTO 17008KT 10SM CLR 09/06 A2969 RMK AO2 SLP057 T00940056
Loading
Personal Weather Stations






























Interactive Weather Map New forecast layout! Learn more

10-Day Weather Forecast

Advertisements
Track Severe Weather on mobile